Time;durP1;ratioP1;P1;durP2;ratioP2;P2;SDS_P1;SDS_P2;PMS_P1;PMS_P2;Temp;Humidity;BMP_temperature;BMP_pressure;BME280_temperature;BME280_humidity;BME280_pressure;Samples;Min_cycle;Max_cycle;Signal;HPM_P1;HPM_P2
2021/12/08 00:00:39;;;;;;;3.83;3.53;;;;;;;;;;5052136;28;20440;-76
2021/12/08 00:03:07;;;;;;;4.28;3.88;;;;;;;;;;5051881;28;20451;-75
2021/12/08 00:05:34;;;;;;;5.00;4.23;;;;;;;;;;5051363;28;20269;-74
2021/12/08 00:08:02;;;;;;;5.33;4.90;;;;;;;;;;5051918;28;20464;-74
2021/12/08 00:10:52;;;;;;;6.20;5.60;;;;;;;;;;5051993;28;20446;-74
2021/12/08 00:13:20;;;;;;;6.20;5.30;;;;;;;;;;5051633;28;20430;-75
2021/12/08 00:15:48;;;;;;;5.50;5.10;;;;;;;;;;5051405;28;20919;-75
2021/12/08 00:18:16;;;;;;;5.90;5.35;;;;;;;;;;5051729;28;20453;-75
2021/12/08 00:20:45;;;;;;;6.00;5.50;;;;;;;;;;5050963;28;20205;-74
2021/12/08 00:23:12;;;;;;;7.30;6.00;;;;;;;;;;5051512;28;20438;-74
2021/12/08 00:25:40;;;;;;;16.80;8.03;;;;;;;;;;5051411;28;20999;-75
2021/12/08 00:28:08;;;;;;;7.50;6.20;;;;;;;;;;5051772;28;20941;-76
2021/12/08 00:30:38;;;;;;;6.73;6.07;;;;;;;;;;5051288;28;20499;-77
2021/12/08 00:33:06;;;;;;;9.30;6.50;;;;;;;;;;5051340;28;20437;-76
2021/12/08 00:35:34;;;;;;;6.27;5.23;;;;;;;;;;5051622;28;20488;-77
2021/12/08 00:38:01;;;;;;;6.03;5.43;;;;;;;;;;5051326;28;20956;-75
2021/12/08 00:40:29;;;;;;;7.10;5.50;;;;;;;;;;5051587;28;20453;-74
2021/12/08 00:42:56;;;;;;;6.73;5.97;;;;;;;;;;5051202;28;20468;-75
2021/12/08 00:45:24;;;;;;;7.67;6.07;;;;;;;;;;5051053;28;21039;-77
2021/12/08 00:47:54;;;;;;;8.27;5.73;;;;;;;;;;5051218;28;20444;-75
2021/12/08 00:50:22;;;;;;;6.20;5.60;;;;;;;;;;5051397;28;20456;-74
2021/12/08 00:52:51;;;;;;;6.70;5.70;;;;;;;;;;5051176;28;20446;-74
2021/12/08 00:55:19;;;;;;;5.80;4.80;;;;;;;;;;5051048;28;20833;-75
2021/12/08 00:57:46;;;;;;;5.73;4.90;;;;;;;;;;5051201;28;20454;-76
2021/12/08 01:00:14;;;;;;;6.00;5.37;;;;;;;;;;5051551;28;20452;-77
2021/12/08 01:02:41;;;;;;;5.47;4.97;;;;;;;;;;5050816;28;20446;-74
2021/12/08 01:05:11;;;;;;;8.77;5.10;;;;;;;;;;5051603;28;20465;-75
2021/12/08 01:07:38;;;;;;;7.05;4.45;;;;;;;;;;5061321;28;20446;-75
2021/12/08 01:10:06;;;;;;;4.50;2.95;;;;;;;;;;5067050;28;20199;-75
2021/12/08 01:12:33;;;;;;;4.43;3.37;;;;;;;;;;5069056;28;20202;-78
2021/12/08 01:15:00;;;;;;;3.43;3.13;;;;;;;;;;5071231;28;20460;-76
2021/12/08 01:17:27;;;;;;;3.90;3.10;;;;;;;;;;5072199;28;20560;-79
2021/12/08 01:19:54;;;;;;;3.20;2.67;;;;;;;;;;5059504;28;20584;-74
2021/12/08 01:22:23;;;;;;;3.15;2.95;;;;;;;;;;5053110;28;20528;-76
2021/12/08 01:24:50;;;;;;;4.37;3.67;;;;;;;;;;5052473;28;20726;-78
2021/12/08 01:27:17;;;;;;;3.20;2.90;;;;;;;;;;5052439;28;20942;-75
2021/12/08 01:29:47;;;;;;;3.40;3.10;;;;;;;;;;5052972;28;20449;-77
2021/12/08 01:32:15;;;;;;;3.40;3.13;;;;;;;;;;5055455;28;20453;-74
2021/12/08 01:34:42;;;;;;;5.30;3.07;;;;;;;;;;5055624;28;20475;-75
2021/12/08 01:37:09;;;;;;;3.70;3.40;;;;;;;;;;5054704;28;20476;-76
2021/12/08 01:39:37;;;;;;;4.00;3.17;;;;;;;;;;5055105;28;20932;-77
2021/12/08 01:42:06;;;;;;;4.00;3.20;;;;;;;;;;5055193;28;20478;-75
2021/12/08 01:47:20;;;;;;;3.93;3.30;;;;;;;;;;5037514;28;20479;-76
2021/12/08 01:49:47;;;;;;;3.90;3.60;;;;;;;;;;5054631;28;20496;-77
2021/12/08 01:52:14;;;;;;;4.70;3.40;;;;;;;;;;5054980;28;20498;-77
2021/12/08 01:54:42;;;;;;;3.35;3.13;;;;;;;;;;5055433;28;20518;-75
2021/12/08 01:57:10;;;;;;;3.85;3.08;;;;;;;;;;5055146;28;20226;-75
2021/12/08 01:59:37;;;;;;;3.50;3.20;;;;;;;;;;5055664;28;20195;-77
2021/12/08 02:02:04;;;;;;;3.20;3.00;;;;;;;;;;5053611;28;20453;-75
2021/12/08 02:04:31;;;;;;;3.47;3.17;;;;;;;;;;5054341;28;20469;-76
2021/12/08 02:07:00;;;;;;;3.70;3.40;;;;;;;;;;5054777;28;20203;-77
2021/12/08 02:09:27;;;;;;;3.83;3.03;;;;;;;;;;5054686;28;20484;-75
2021/12/08 02:11:56;;;;;;;3.53;3.20;;;;;;;;;;5054601;28;20441;-75
2021/12/08 02:14:24;;;;;;;3.87;3.30;;;;;;;;;;5053832;28;20473;-75
2021/12/08 02:16:51;;;;;;;5.00;3.50;;;;;;;;;;5054077;28;20491;-75
2021/12/08 02:19:18;;;;;;;4.27;3.23;;;;;;;;;;5054731;28;20452;-75
2021/12/08 02:21:52;;;;;;;3.40;3.20;;;;;;;;;;5054766;28;20472;-75
2021/12/08 02:24:19;;;;;;;3.13;2.83;;;;;;;;;;5054369;28;20542;-75
2021/12/08 02:26:47;;;;;;;2.97;2.73;;;;;;;;;;5054409;28;20445;-76
2021/12/08 02:29:18;;;;;;;3.15;2.85;;;;;;;;;;5054154;28;20457;-75
2021/12/08 02:31:52;;;;;;;2.67;2.55;;;;;;;;;;5054215;28;20278;-77
2021/12/08 02:48:04;;;;;;;2.93;2.67;;;;;;;;;;5053842;28;20399;-79
2021/12/08 02:50:34;;;;;;;4.37;3.53;;;;;;;;;;5055226;28;20427;-77
2021/12/08 02:53:03;;;;;;;3.47;3.23;;;;;;;;;;5055226;28;20435;-76
2021/12/08 02:55:30;;;;;;;3.53;3.23;;;;;;;;;;5054956;28;20468;-75
2021/12/08 02:57:58;;;;;;;3.40;3.20;;;;;;;;;;5054971;28;21017;-75
2021/12/08 03:00:27;;;;;;;3.40;3.10;;;;;;;;;;5055320;28;20464;-75
2021/12/08 03:02:55;;;;;;;5.13;3.53;;;;;;;;;;5054966;28;20570;-77
2021/12/08 03:05:23;;;;;;;2.87;2.60;;;;;;;;;;5055145;28;20832;-75
2021/12/08 03:07:50;;;;;;;5.03;3.03;;;;;;;;;;5054236;28;20479;-77
2021/12/08 03:10:20;;;;;;;7.03;3.50;;;;;;;;;;5052814;28;20818;-75
2021/12/08 03:12:47;;;;;;;3.15;2.95;;;;;;;;;;5053070;28;20505;-76
2021/12/08 03:15:14;;;;;;;3.80;3.50;;;;;;;;;;5052848;28;20231;-75
2021/12/08 03:17:42;;;;;;;3.35;3.15;;;;;;;;;;5053385;28;20479;-75
2021/12/08 03:20:11;;;;;;;3.70;3.30;;;;;;;;;;5053206;28;20518;-75
2021/12/08 03:22:43;;;;;;;4.60;4.00;;;;;;;;;;5053071;28;20532;-76
2021/12/08 03:25:13;;;;;;;4.83;3.73;;;;;;;;;;5053092;28;20505;-77
2021/12/08 03:27:48;;;;;;;4.53;4.07;;;;;;;;;;5052970;28;20426;-75
2021/12/08 03:30:25;;;;;;;4.30;3.90;;;;;;;;;;5052872;28;20445;-78
2021/12/08 03:32:56;;;;;;;4.53;3.03;;;;;;;;;;5052798;28;20426;-76
2021/12/08 03:35:23;;;;;;;4.23;3.53;;;;;;;;;;5052651;28;20481;-75
2021/12/08 03:37:51;;;;;;;4.20;3.53;;;;;;;;;;5052498;28;20488;-75
2021/12/08 03:40:20;;;;;;;3.33;3.10;;;;;;;;;;5052824;28;20469;-77
2021/12/08 03:42:49;;;;;;;3.60;3.30;;;;;;;;;;5052221;28;20191;-75
2021/12/08 03:45:18;;;;;;;3.50;3.20;;;;;;;;;;5052001;28;20486;-76
2021/12/08 03:47:47;;;;;;;3.50;3.20;;;;;;;;;;5052544;28;20442;-76
2021/12/08 03:50:15;;;;;;;4.87;3.20;;;;;;;;;;5052590;28;20460;-76
2021/12/08 03:52:43;;;;;;;3.90;3.50;;;;;;;;;;5052233;28;20918;-77
2021/12/08 03:55:11;;;;;;;3.50;3.30;;;;;;;;;;5052248;28;20527;-76
2021/12/08 03:57:38;;;;;;;4.07;3.77;;;;;;;;;;5053018;28;20488;-75
2021/12/08 04:00:08;;;;;;;4.47;4.17;;;;;;;;;;5052404;28;20477;-76
2021/12/08 04:02:35;;;;;;;4.87;4.40;;;;;;;;;;5052304;28;20449;-75
2021/12/08 04:05:03;;;;;;;4.47;4.07;;;;;;;;;;5052453;28;20474;-76
2021/12/08 04:07:31;;;;;;;4.87;4.43;;;;;;;;;;5052511;28;20468;-75
2021/12/08 04:09:58;;;;;;;5.97;4.43;;;;;;;;;;5053365;28;20926;-75
2021/12/08 04:12:25;;;;;;;4.10;3.63;;;;;;;;;;5054029;28;20475;-75
2021/12/08 04:14:54;;;;;;;5.27;4.87;;;;;;;;;;5051987;28;20481;-77
2021/12/08 04:17:24;;;;;;;4.90;4.50;;;;;;;;;;5051644;28;20487;-75
2021/12/08 04:19:52;;;;;;;4.30;3.90;;;;;;;;;;5053052;28;20434;-76
2021/12/08 04:22:21;;;;;;;4.80;4.40;;;;;;;;;;5060301;28;20447;-76
2021/12/08 04:24:49;;;;;;;4.80;4.30;;;;;;;;;;5062424;28;20832;-76
2021/12/08 04:27:20;;;;;;;5.30;4.77;;;;;;;;;;5055106;28;20439;-75
2021/12/08 04:29:49;;;;;;;5.07;4.67;;;;;;;;;;5047763;28;20447;-76
2021/12/08 04:32:17;;;;;;;5.67;5.03;;;;;;;;;;5048682;28;20448;-77
2021/12/08 04:34:48;;;;;;;5.40;4.90;;;;;;;;;;5048356;28;20474;-76
2021/12/08 04:37:20;;;;;;;4.80;4.30;;;;;;;;;;5034781;28;20468;-76
2021/12/08 04:39:56;;;;;;;5.33;4.80;;;;;;;;;;5032827;28;20469;-76
2021/12/08 04:42:36;;;;;;;4.68;4.28;;;;;;;;;;5032249;28;20551;-76
2021/12/08 04:45:10;;;;;;;4.80;4.40;;;;;;;;;;5032054;28;20231;-77
2021/12/08 04:47:50;;;;;;;8.53;4.63;;;;;;;;;;5032565;28;20447;-76
2021/12/08 04:50:41;;;;;;;5.00;4.50;;;;;;;;;;5032324;28;20510;-75
2021/12/08 04:53:26;;;;;;;5.37;4.87;;;;;;;;;;5032936;28;20724;-75
2021/12/08 05:02:04;;;;;;;6.07;5.00;;;;;;;;;;5029546;28;20456;-77
2021/12/08 05:04:40;;;;;;;6.07;5.40;;;;;;;;;;5032092;28;20546;-78
2021/12/08 05:07:28;;;;;;;5.80;5.30;;;;;;;;;;5034598;28;20521;-76
2021/12/08 05:09:56;;;;;;;6.23;5.50;;;;;;;;;;5042741;28;20442;-77
2021/12/08 05:12:24;;;;;;;5.80;5.07;;;;;;;;;;5046667;28;20444;-75
2021/12/08 05:14:53;;;;;;;6.67;5.27;;;;;;;;;;5037434;28;20473;-77
2021/12/08 05:17:25;;;;;;;5.70;5.30;;;;;;;;;;5036188;28;20474;-76
2021/12/08 05:19:55;;;;;;;6.43;5.83;;;;;;;;;;5035593;28;20456;-77
2021/12/08 05:22:25;;;;;;;6.47;5.77;;;;;;;;;;5035496;28;21031;-77
2021/12/08 05:24:54;;;;;;;6.90;6.30;;;;;;;;;;5036319;28;20498;-76
2021/12/08 05:27:25;;;;;;;6.20;5.70;;;;;;;;;;5035064;28;20535;-76
2021/12/08 05:29:54;;;;;;;6.87;6.07;;;;;;;;;;5035541;28;20476;-76
2021/12/08 05:32:21;;;;;;;6.20;5.80;;;;;;;;;;5035299;28;20826;-76
2021/12/08 05:34:49;;;;;;;6.37;5.77;;;;;;;;;;5035983;28;20485;-76
2021/12/08 05:37:19;;;;;;;6.90;6.33;;;;;;;;;;5036946;28;21009;-76
2021/12/08 05:39:48;;;;;;;6.90;6.20;;;;;;;;;;5037691;28;20444;-79
2021/12/08 05:42:16;;;;;;;7.63;6.60;;;;;;;;;;5036287;28;20447;-76
2021/12/08 05:44:44;;;;;;;6.93;6.23;;;;;;;;;;5035357;28;20456;-80
2021/12/08 05:47:12;;;;;;;7.37;6.43;;;;;;;;;;5036038;28;20439;-77
2021/12/08 05:49:40;;;;;;;6.97;6.27;;;;;;;;;;5035568;28;20446;-75
2021/12/08 05:52:08;;;;;;;7.17;6.43;;;;;;;;;;5035086;28;20440;-77
2021/12/08 05:54:38;;;;;;;7.20;6.50;;;;;;;;;;5034453;28;20459;-76
2021/12/08 05:57:08;;;;;;;7.20;6.53;;;;;;;;;;5034890;28;20537;-76
2021/12/08 05:59:36;;;;;;;12.60;7.83;;;;;;;;;;5034590;28;20447;-76
2021/12/08 06:02:05;;;;;;;7.00;6.30;;;;;;;;;;5035025;28;20457;-75
2021/12/08 06:04:33;;;;;;;7.50;6.70;;;;;;;;;;5035116;28;20468;-75
2021/12/08 06:07:01;;;;;;;7.90;7.20;;;;;;;;;;5035291;28;20451;-77
2021/12/08 06:09:29;;;;;;;7.57;6.83;;;;;;;;;;5035128;28;20459;-75
2021/12/08 06:11:57;;;;;;;34.90;28.87;;;;;;;;;;5034840;28;20474;-76
2021/12/08 06:14:31;;;;;;;10.80;8.50;;;;;;;;;;5033726;28;20476;-75
2021/12/08 06:16:59;;;;;;;8.80;8.00;;;;;;;;;;5034613;28;20519;-76
2021/12/08 06:19:26;;;;;;;8.05;7.30;;;;;;;;;;5034080;28;20453;-76
2021/12/08 06:21:53;;;;;;;8.60;7.63;;;;;;;;;;5034566;28;20569;-75
2021/12/08 06:24:22;;;;;;;8.73;7.90;;;;;;;;;;5034582;28;21003;-76
2021/12/08 06:26:50;;;;;;;18.10;15.67;;;;;;;;;;5034460;28;20452;-77
2021/12/08 06:29:18;;;;;;;14.20;11.90;;;;;;;;;;5034836;28;20462;-75
2021/12/08 06:31:47;;;;;;;19.93;13.40;;;;;;;;;;5034557;28;20481;-75
2021/12/08 06:34:15;;;;;;;11.97;10.67;;;;;;;;;;5033877;28;21106;-79
2021/12/08 06:36:44;;;;;;;17.33;14.63;;;;;;;;;;5038456;28;20791;-75
2021/12/08 06:39:13;;;;;;;14.27;12.80;;;;;;;;;;5040310;28;20477;-77
2021/12/08 06:41:41;;;;;;;15.83;13.93;;;;;;;;;;5040022;28;20450;-76
2021/12/08 06:44:10;;;;;;;10.77;9.70;;;;;;;;;;5038993;28;20466;-78
2021/12/08 06:46:38;;;;;;;10.63;9.53;;;;;;;;;;5039383;28;20964;-77
2021/12/08 06:49:10;;;;;;;9.70;8.75;;;;;;;;;;5040220;28;20933;-76
2021/12/08 06:51:38;;;;;;;11.37;9.80;;;;;;;;;;5040282;28;20211;-75
2021/12/08 06:54:07;;;;;;;9.00;8.20;;;;;;;;;;5040094;28;20808;-78
2021/12/08 06:56:35;;;;;;;9.17;8.27;;;;;;;;;;5035373;28;20427;-77
2021/12/08 06:59:04;;;;;;;9.35;7.60;;;;;;;;;;5034283;28;20482;-77
2021/12/08 07:01:42;;;;;;;22.03;19.07;;;;;;;;;;5038188;28;20454;-78
2021/12/08 07:04:26;;;;;;;13.13;11.80;;;;;;;;;;5053869;28;20575;-78
2021/12/08 07:06:59;;;;;;;10.52;9.38;;;;;;;;;;5055024;28;20785;-76
2021/12/08 07:09:28;;;;;;;9.50;7.50;;;;;;;;;;5055647;28;20226;-77
2021/12/08 07:11:56;;;;;;;7.33;6.70;;;;;;;;;;5053961;28;20437;-76
2021/12/08 07:14:23;;;;;;;9.40;7.80;;;;;;;;;;5053932;28;20469;-76
2021/12/08 07:16:53;;;;;;;7.63;6.87;;;;;;;;;;5054877;28;20444;-76
2021/12/08 07:19:28;;;;;;;9.43;6.40;;;;;;;;;;5055677;28;20636;-76
2021/12/08 07:21:57;;;;;;;7.33;6.50;;;;;;;;;;5053686;28;20434;-78
2021/12/08 07:24:25;;;;;;;7.23;6.57;;;;;;;;;;5052822;28;20457;-77
2021/12/08 07:26:54;;;;;;;6.90;6.37;;;;;;;;;;5054994;28;20441;-76
2021/12/08 07:29:23;;;;;;;7.50;6.63;;;;;;;;;;5053626;28;20466;-76
2021/12/08 07:31:52;;;;;;;7.20;6.50;;;;;;;;;;5055020;28;20449;-76
2021/12/08 07:34:20;;;;;;;6.63;6.13;;;;;;;;;;5054324;28;20526;-78
2021/12/08 07:36:52;;;;;;;7.37;6.67;;;;;;;;;;5054353;28;20425;-76
2021/12/08 07:39:23;;;;;;;6.20;5.60;;;;;;;;;;5055325;28;20490;-78
2021/12/08 07:41:52;;;;;;;6.60;5.93;;;;;;;;;;5054692;28;20460;-76
2021/12/08 07:44:20;;;;;;;8.27;6.53;;;;;;;;;;5054704;28;20474;-75
2021/12/08 07:46:48;;;;;;;8.97;5.67;;;;;;;;;;5053570;28;20951;-77
2021/12/08 07:49:17;;;;;;;6.60;6.00;;;;;;;;;;5054125;28;20449;-76
2021/12/08 07:51:47;;;;;;;7.20;6.60;;;;;;;;;;5055300;28;20503;-78
2021/12/08 07:54:16;;;;;;;7.13;6.43;;;;;;;;;;5054833;28;20447;-78
2021/12/08 07:56:44;;;;;;;7.23;6.53;;;;;;;;;;5054398;28;20449;-77
2021/12/08 07:59:13;;;;;;;7.80;7.03;;;;;;;;;;5049432;28;20967;-76
2021/12/08 08:01:41;;;;;;;7.67;6.67;;;;;;;;;;5041479;28;20934;-76
2021/12/08 08:04:10;;;;;;;8.20;6.33;;;;;;;;;;5036751;28;20470;-78
2021/12/08 08:06:39;;;;;;;7.37;6.73;;;;;;;;;;5053560;28;20507;-76
2021/12/08 08:09:09;;;;;;;7.90;7.20;;;;;;;;;;5052954;28;20781;-76
2021/12/08 08:11:41;;;;;;;8.70;7.80;;;;;;;;;;5053336;28;20812;-76
2021/12/08 08:14:10;;;;;;;11.63;7.90;;;;;;;;;;5053757;28;21063;-76
2021/12/08 08:16:38;;;;;;;9.48;8.48;;;;;;;;;;5053557;28;20515;-77
2021/12/08 08:19:11;;;;;;;8.77;8.00;;;;;;;;;;5052532;28;20474;-75
2021/12/08 08:21:40;;;;;;;9.17;8.20;;;;;;;;;;5052456;28;20442;-77
2021/12/08 08:24:08;;;;;;;10.07;9.07;;;;;;;;;;5052626;28;20478;-77
2021/12/08 08:26:36;;;;;;;9.10;8.30;;;;;;;;;;5054125;28;20526;-77
2021/12/08 08:29:08;;;;;;;11.60;10.40;;;;;;;;;;5053833;28;20446;-76
2021/12/08 08:31:37;;;;;;;10.60;9.70;;;;;;;;;;5053658;28;20418;-78
2021/12/08 08:34:05;;;;;;;10.80;9.70;;;;;;;;;;5053459;28;20983;-76
2021/12/08 08:36:33;;;;;;;10.50;9.40;;;;;;;;;;5053934;28;20482;-76
2021/12/08 08:39:02;;;;;;;10.30;8.93;;;;;;;;;;5052576;28;21018;-76
2021/12/08 08:41:30;;;;;;;11.20;8.70;;;;;;;;;;5054386;28;20434;-78
2021/12/08 08:43:59;;;;;;;9.80;8.90;;;;;;;;;;5056708;28;20457;-78
2021/12/08 08:46:33;;;;;;;15.90;10.30;;;;;;;;;;5057374;28;20460;-77
2021/12/08 08:49:02;;;;;;;12.17;8.63;;;;;;;;;;5056983;28;20433;-76
2021/12/08 08:51:31;;;;;;;9.57;8.67;;;;;;;;;;5057498;28;20450;-77
2021/12/08 08:54:00;;;;;;;9.60;8.70;;;;;;;;;;5056834;28;20910;-77
2021/12/08 08:56:30;;;;;;;9.80;8.83;;;;;;;;;;5056451;28;20445;-77
2021/12/08 08:59:03;;;;;;;10.87;8.27;;;;;;;;;;5055669;28;20911;-76
2021/12/08 09:01:34;;;;;;;9.30;8.40;;;;;;;;;;5056037;28;20479;-76
2021/12/08 09:04:02;;;;;;;8.13;7.40;;;;;;;;;;5056606;28;20449;-76
2021/12/08 09:06:32;;;;;;;9.23;6.77;;;;;;;;;;5049940;28;20472;-76
2021/12/08 09:09:02;;;;;;;8.30;7.50;;;;;;;;;;5049906;28;20434;-77
2021/12/08 09:11:30;;;;;;;8.30;7.60;;;;;;;;;;5048164;28;20446;-77
2021/12/08 09:14:00;;;;;;;7.43;6.80;;;;;;;;;;5049326;28;20490;-76
2021/12/08 09:16:29;;;;;;;6.80;6.00;;;;;;;;;;5055795;28;20449;-76
2021/12/08 09:19:04;;;;;;;5.93;5.43;;;;;;;;;;5056065;28;20480;-76
2021/12/08 09:21:33;;;;;;;6.93;6.30;;;;;;;;;;5056735;28;20429;-76
2021/12/08 09:24:04;;;;;;;7.10;6.50;;;;;;;;;;5056097;28;20472;-75
2021/12/08 09:26:32;;;;;;;6.30;5.77;;;;;;;;;;5056414;28;20461;-76
2021/12/08 09:29:01;;;;;;;7.05;5.65;;;;;;;;;;5055916;28;20437;-76
2021/12/08 09:31:31;;;;;;;7.13;6.43;;;;;;;;;;5055817;28;20237;-76
2021/12/08 09:34:02;;;;;;;6.33;5.70;;;;;;;;;;5055010;28;20457;-77
2021/12/08 09:36:31;;;;;;;6.28;5.75;;;;;;;;;;5055303;28;20425;-76
2021/12/08 09:39:01;;;;;;;6.30;5.80;;;;;;;;;;5055095;28;20227;-76
2021/12/08 09:41:30;;;;;;;7.03;6.03;;;;;;;;;;5055257;28;20456;-76
2021/12/08 09:43:59;;;;;;;5.82;5.32;;;;;;;;;;5055001;28;20223;-77
2021/12/08 09:46:27;;;;;;;6.30;5.80;;;;;;;;;;5054650;28;20670;-76
2021/12/08 09:48:55;;;;;;;6.60;6.03;;;;;;;;;;5054766;28;20437;-76
2021/12/08 09:51:24;;;;;;;6.28;5.78;;;;;;;;;;5054407;28;20444;-77
2021/12/08 09:53:52;;;;;;;6.23;5.83;;;;;;;;;;5054883;28;20229;-76
2021/12/08 09:56:19;;;;;;;5.60;5.20;;;;;;;;;;5054935;28;20494;-77
2021/12/08 09:58:46;;;;;;;6.07;5.63;;;;;;;;;;5054530;28;20477;-76
2021/12/08 10:01:18;;;;;;;6.50;5.90;;;;;;;;;;5054287;28;20438;-77
2021/12/08 10:03:45;;;;;;;6.17;5.67;;;;;;;;;;5040005;28;20455;-76
2021/12/08 10:06:13;;;;;;;7.13;5.70;;;;;;;;;;5053704;28;20445;-76
2021/12/08 10:08:44;;;;;;;6.17;5.23;;;;;;;;;;5046941;28;20442;-79
2021/12/08 10:11:11;;;;;;;5.75;5.30;;;;;;;;;;5054115;28;20452;-77
2021/12/08 10:13:38;;;;;;;6.20;5.37;;;;;;;;;;5041353;28;20656;-78
2021/12/08 10:16:07;;;;;;;6.77;6.07;;;;;;;;;;5033867;28;20446;-76
2021/12/08 10:18:34;;;;;;;6.27;5.67;;;;;;;;;;5033950;28;20855;-75
2021/12/08 10:21:01;;;;;;;5.80;5.30;;;;;;;;;;5033922;28;20496;-75
2021/12/08 10:23:30;;;;;;;6.43;5.53;;;;;;;;;;5033611;28;20485;-76
2021/12/08 10:26:00;;;;;;;5.63;5.23;;;;;;;;;;5033698;28;20549;-75
2021/12/08 10:28:28;;;;;;;7.23;6.60;;;;;;;;;;5033355;28;20819;-76
2021/12/08 10:30:58;;;;;;;13.00;8.47;;;;;;;;;;5033731;28;20442;-77
2021/12/08 10:33:49;;;;;;;9.27;8.30;;;;;;;;;;5033045;28;20835;-75
2021/12/08 10:36:34;;;;;;;9.60;8.70;;;;;;;;;;5033754;28;20474;-76
2021/12/08 10:39:03;;;;;;;12.93;9.17;;;;;;;;;;5033397;28;20478;-78
2021/12/08 10:41:43;;;;;;;13.70;9.53;;;;;;;;;;5033265;28;20789;-76
2021/12/08 10:44:10;;;;;;;13.30;9.27;;;;;;;;;;5033243;28;20466;-76
2021/12/08 10:46:38;;;;;;;11.10;9.63;;;;;;;;;;5033733;28;20454;-75
2021/12/08 10:49:12;;;;;;;10.83;9.47;;;;;;;;;;5033498;28;20442;-74
2021/12/08 10:54:31;;;;;;;9.90;8.90;;;;;;;;;;5033306;28;20450;-75
2021/12/08 10:57:00;;;;;;;10.70;8.30;;;;;;;;;;5033171;28;20474;-77
2021/12/08 10:59:28;;;;;;;13.70;10.50;;;;;;;;;;5033288;28;20474;-75
2021/12/08 11:01:59;;;;;;;10.50;9.50;;;;;;;;;;5040028;28;20536;-76
2021/12/08 11:04:30;;;;;;;8.53;7.73;;;;;;;;;;5051901;28;20462;-75
2021/12/08 11:07:04;;;;;;;10.97;9.87;;;;;;;;;;5053489;28;20446;-75
2021/12/08 11:09:39;;;;;;;10.82;9.73;;;;;;;;;;5052927;28;20532;-76
2021/12/08 11:12:08;;;;;;;11.17;9.70;;;;;;;;;;5052807;28;20222;-76
2021/12/08 11:14:46;;;;;;;9.80;8.07;;;;;;;;;;5052223;28;20999;-74
2021/12/08 11:17:26;;;;;;;10.20;9.17;;;;;;;;;;5052764;28;20845;-75
2021/12/08 11:20:14;;;;;;;10.37;8.93;;;;;;;;;;5052686;28;20481;-76
2021/12/08 11:22:43;;;;;;;7.80;7.07;;;;;;;;;;5052595;28;20510;-77
2021/12/08 11:25:21;;;;;;;5.97;5.47;;;;;;;;;;5052675;28;20233;-76
2021/12/08 11:27:49;;;;;;;6.40;5.90;;;;;;;;;;5049035;28;20458;-77
2021/12/08 11:30:19;;;;;;;6.05;5.45;;;;;;;;;;5046293;28;20475;-75
2021/12/08 11:32:46;;;;;;;6.00;5.50;;;;;;;;;;5052110;28;20191;-74
2021/12/08 11:35:19;;;;;;;7.70;7.00;;;;;;;;;;5052212;28;20501;-76
2021/12/08 11:37:58;;;;;;;10.00;9.00;;;;;;;;;;5052975;28;20868;-75
2021/12/08 11:40:25;;;;;;;10.20;9.30;;;;;;;;;;5056022;28;20549;-75
2021/12/08 11:42:54;;;;;;;10.73;9.73;;;;;;;;;;5059045;28;20437;-74
2021/12/08 11:45:22;;;;;;;11.67;10.27;;;;;;;;;;5059337;28;20488;-75
2021/12/08 11:47:49;;;;;;;13.30;10.70;;;;;;;;;;5054453;28;20457;-76
2021/12/08 11:50:19;;;;;;;11.80;10.60;;;;;;;;;;5048180;28;20446;-75
2021/12/08 11:52:51;;;;;;;10.70;9.80;;;;;;;;;;5055957;28;20540;-75
2021/12/08 11:55:21;;;;;;;11.80;10.60;;;;;;;;;;5058053;28;20736;-74
2021/12/08 11:57:49;;;;;;;12.17;10.97;;;;;;;;;;5052933;28;20457;-76
2021/12/08 12:00:19;;;;;;;10.90;9.85;;;;;;;;;;5052337;28;20492;-76
2021/12/08 12:02:52;;;;;;;11.23;10.23;;;;;;;;;;5052521;28;20202;-75
2021/12/08 12:05:20;;;;;;;10.83;9.77;;;;;;;;;;5051899;28;20983;-77
2021/12/08 12:07:47;;;;;;;12.23;10.20;;;;;;;;;;5052607;28;20788;-76
2021/12/08 12:10:16;;;;;;;11.93;9.63;;;;;;;;;;5052098;28;20230;-76
2021/12/08 12:12:44;;;;;;;11.43;9.90;;;;;;;;;;5051747;28;20472;-75
2021/12/08 12:15:13;;;;;;;10.57;9.57;;;;;;;;;;5052085;28;20473;-74
2021/12/08 12:17:41;;;;;;;10.07;9.10;;;;;;;;;;5052114;28;20940;-75
2021/12/08 12:20:13;;;;;;;10.37;9.47;;;;;;;;;;5049789;28;20481;-76
2021/12/08 12:22:43;;;;;;;10.77;9.27;;;;;;;;;;5049388;28;20534;-73
2021/12/08 12:25:25;;;;;;;8.80;7.90;;;;;;;;;;5050888;28;20976;-74
2021/12/08 12:28:00;;;;;;;6.50;6.00;;;;;;;;;;5049057;28;20459;-77
2021/12/08 12:30:31;;;;;;;6.40;5.80;;;;;;;;;;5051709;28;20452;-76
2021/12/08 12:33:00;;;;;;;5.53;5.03;;;;;;;;;;5052021;28;20484;-76
2021/12/08 12:35:29;;;;;;;5.50;5.10;;;;;;;;;;5052198;28;20593;-75
2021/12/08 12:38:02;;;;;;;4.93;4.53;;;;;;;;;;5052128;28;20430;-76
2021/12/08 12:40:31;;;;;;;5.23;4.23;;;;;;;;;;5052440;28;20485;-76
2021/12/08 12:42:59;;;;;;;5.30;4.90;;;;;;;;;;5051929;28;20449;-76
2021/12/08 12:45:27;;;;;;;4.60;4.20;;;;;;;;;;5052445;28;20500;-74
2021/12/08 12:48:08;;;;;;;15.73;5.27;;;;;;;;;;5052096;28;20452;-77
2021/12/08 12:50:50;;;;;;;5.73;5.00;;;;;;;;;;5053010;28;20430;-75
2021/12/08 12:53:31;;;;;;;5.30;4.80;;;;;;;;;;5052250;28;20442;-76
2021/12/08 12:55:58;;;;;;;5.60;5.10;;;;;;;;;;5052885;28;20469;-76
2021/12/08 12:58:25;;;;;;;6.00;5.40;;;;;;;;;;5052206;28;20434;-77
2021/12/08 13:01:05;;;;;;;5.20;4.80;;;;;;;;;;5052740;28;20485;-75
2021/12/08 13:03:38;;;;;;;7.67;5.47;;;;;;;;;;5032058;28;20469;-76
2021/12/08 13:06:05;;;;;;;5.77;5.20;;;;;;;;;;5031865;28;20490;-77
2021/12/08 13:08:33;;;;;;;5.97;5.30;;;;;;;;;;5032026;28;20500;-75
2021/12/08 13:11:05;;;;;;;6.07;5.50;;;;;;;;;;5032241;28;20439;-75
2021/12/08 13:13:45;;;;;;;6.70;5.23;;;;;;;;;;5032235;28;20442;-76
2021/12/08 13:16:21;;;;;;;7.23;5.13;;;;;;;;;;5032336;28;20446;-75
2021/12/08 13:18:55;;;;;;;5.30;4.80;;;;;;;;;;5032641;28;20467;-74
2021/12/08 13:21:37;;;;;;;5.30;4.80;;;;;;;;;;5031948;28;20442;-75
2021/12/08 13:24:04;;;;;;;5.95;5.40;;;;;;;;;;5032204;28;20478;-75
2021/12/08 13:26:46;;;;;;;6.20;5.70;;;;;;;;;;5033192;28;20247;-75
2021/12/08 13:29:20;;;;;;;6.70;5.37;;;;;;;;;;5036398;28;20451;-74
2021/12/08 13:31:59;;;;;;;6.50;5.80;;;;;;;;;;5036562;28;20872;-77
2021/12/08 13:34:33;;;;;;;6.77;5.87;;;;;;;;;;5035554;28;20470;-76
2021/12/08 13:37:13;;;;;;;7.13;6.53;;;;;;;;;;5035935;28;20446;-76
2021/12/08 13:39:42;;;;;;;7.43;6.60;;;;;;;;;;5036213;28;20473;-77
2021/12/08 13:42:11;;;;;;;9.47;8.43;;;;;;;;;;5035912;28;20466;-76
2021/12/08 13:44:39;;;;;;;10.97;9.27;;;;;;;;;;5040259;28;20465;-77
2021/12/08 13:47:08;;;;;;;9.83;8.83;;;;;;;;;;5053745;28;20419;-78
2021/12/08 13:49:46;;;;;;;12.53;9.37;;;;;;;;;;5053766;28;20438;-76
2021/12/08 13:52:31;;;;;;;11.47;9.80;;;;;;;;;;5053598;28;20442;-76
2021/12/08 13:54:59;;;;;;;13.73;9.45;;;;;;;;;;5053249;28;20488;-78
2021/12/08 13:57:31;;;;;;;99.60;67.78;;;;;;;;;;5052591;28;20290;-77
2021/12/08 13:59:59;;;;;;;49.33;30.97;;;;;;;;;;5051977;28;20230;-74
2021/12/08 14:02:28;;;;;;;42.73;29.97;;;;;;;;;;5055996;28;20453;-78
2021/12/08 14:05:01;;;;;;;12.57;11.27;;;;;;;;;;5057953;28;20547;-74
2021/12/08 14:07:28;;;;;;;11.50;10.40;;;;;;;;;;5058495;28;20445;-75
2021/12/08 14:09:59;;;;;;;11.95;9.70;;;;;;;;;;5057912;28;20441;-75
2021/12/08 14:12:40;;;;;;;10.47;9.50;;;;;;;;;;5054741;28;20249;-75
2021/12/08 14:15:08;;;;;;;11.00;10.00;;;;;;;;;;5054870;28;20449;-79
2021/12/08 14:17:35;;;;;;;11.70;10.03;;;;;;;;;;5054191;28;20434;-74
2021/12/08 14:20:05;;;;;;;11.80;9.43;;;;;;;;;;5054124;28;20484;-74
2021/12/08 14:22:38;;;;;;;10.57;9.53;;;;;;;;;;5053955;28;20453;-75
2021/12/08 14:25:06;;;;;;;9.87;8.80;;;;;;;;;;5053933;28;20473;-75
2021/12/08 14:27:34;;;;;;;10.77;8.67;;;;;;;;;;5054624;28;20445;-75
2021/12/08 14:30:01;;;;;;;11.53;10.43;;;;;;;;;;5054889;28;20446;-76
2021/12/08 14:32:28;;;;;;;10.90;10.00;;;;;;;;;;5054649;28;20456;-79
2021/12/08 14:34:55;;;;;;;10.30;9.30;;;;;;;;;;5054346;28;20468;-75
2021/12/08 14:37:23;;;;;;;9.97;9.03;;;;;;;;;;5054382;28;20452;-75
2021/12/08 14:39:53;;;;;;;11.30;10.30;;;;;;;;;;5052914;28;20849;-75
2021/12/08 14:42:24;;;;;;;10.20;9.20;;;;;;;;;;5054436;28;20472;-78
2021/12/08 14:44:54;;;;;;;11.20;9.63;;;;;;;;;;5053829;28;20489;-75
2021/12/08 14:47:25;;;;;;;13.30;10.55;;;;;;;;;;5055026;28;20483;-74
2021/12/08 14:49:55;;;;;;;10.17;9.17;;;;;;;;;;5054079;28;20257;-76
2021/12/08 14:52:24;;;;;;;11.40;10.23;;;;;;;;;;5053835;28;20473;-74
2021/12/08 14:54:52;;;;;;;10.00;9.10;;;;;;;;;;5053710;28;20462;-75
2021/12/08 14:57:20;;;;;;;10.87;9.80;;;;;;;;;;5053224;28;20454;-75
2021/12/08 14:59:49;;;;;;;11.73;10.33;;;;;;;;;;5053245;28;20481;-75
2021/12/08 15:02:21;;;;;;;11.40;9.60;;;;;;;;;;5053063;28;20449;-75
2021/12/08 15:04:48;;;;;;;14.20;9.97;;;;;;;;;;5052809;28;20992;-75
2021/12/08 15:07:19;;;;;;;10.40;9.50;;;;;;;;;;5053614;28;20520;-76
2021/12/08 15:09:57;;;;;;;11.53;10.43;;;;;;;;;;5053425;28;20442;-76
2021/12/08 15:12:24;;;;;;;11.60;10.50;;;;;;;;;;5053080;28;20507;-80
2021/12/08 15:14:51;;;;;;;12.70;11.37;;;;;;;;;;5053005;28;20500;-79
2021/12/08 15:17:28;;;;;;;12.30;11.20;;;;;;;;;;5053542;28;20589;-76
2021/12/08 15:19:55;;;;;;;13.20;11.90;;;;;;;;;;5053121;28;20576;-75